HGRHAGERSTOWN RGNL/RICHARD A HENSON FLD
METARs for airports near HGR, sorted by distance:
N 0 nm 703' KHGR 142353Z 17006KT 10SM CLR 33/18 A2995
SW 21 nm 564' KMRB 142353Z 18004KT 10SM CLR 33/16 A2994
SE 23 nm 308' KFDK 142347Z 19005KT 10SM CLR 33/19 A2995
E 33 nm 789' KDMW 142340Z 18004KT 10SM CLR 36/18 A2997
S 38 nm 389' KJYO 142355Z 22003KT 10SM SCT110 33/21 A2996
SW 39 nm 726' KOKV 142355Z 15004KT 10SM BKN090 BKN110 32/17 A2996
E 41 nm 494' KTHV 142353Z 15005KT 10SM CLR 31/22 A2994
SE 41 nm 538' KGAI 142356Z 18005KT 10SM CLR A2997
NW 42 nm 1161' KHMZ 142335Z 25003KT 10SM CLR 32/11 A2999
NW 44 nm 1503' KAOO 142353Z 00000KT 10SM CLR 29/16 A3001
S 47 nm 312' KIAD 142352Z 18007KT 10SM FEW100 FEW250 33/19 A2995
W 48 nm 775' KCBE 142345Z 26011G15KT 230V290 10SM CLR 34/15 A3002
NE 50 nm 346' KCXY 142356Z 13009KT 10SM CLR 32/21 A2993
NE 53 nm 310' KMDT 142356Z 14008KT 10SM SCT040 SCT080 31/22 A2993
SW 53 nm 703' KFRR 142355Z 20004KT 10SM SCT090 SCT110 31/18 A2997
SE 57 nm 48' KCGS 142345Z 14006KT 10SM CLR 32/23 A2995
N 58 nm 818' KRVL 142355Z 00000KT 10SM FEW080 30/19 A2995
SE 58 nm 150' KFME 142349Z 15003KT 10SM CLR 30/22 A2997
SE 58 nm 143' KBWI 142354Z 16008G15KT 10SM FEW100 FEW250 31/23 A2994
S 60 nm 192' KHEF 142356Z 19004KT 10SM CLR 31/22 A2995
SE 60 nm 14' KDCA 142352Z 21010KT 10SM FEW250 35/17 A2993
NW 62 nm 2284' KJST 142354Z 25004KT 10SM CLR 28/14 A3006
SE 64 nm 73' KDAA 142355Z 15003KT 10SM CLR 33/20 A2992
E 65 nm 21' KMTN 142356Z 17004KT 10SM CLR 30/22 A2996
SE 67 nm 279' KADW 142255Z 13007KT 10SM CLR 32/23 A2993
S 67 nm 336' KHWY 142355Z 00000KT 10SM CLR 32/19 A2996
N 68 nm 1231' KUNV 142353Z 27004KT 10SM BKN060 29/16 A2998
NE 68 nm 487' KMUI 142355Z 00000KT 10SM CLR 29/22 A2993
E 70 nm 402' KLNS 142353Z 13004KT 10SM CLR 29/22 A2995
S 71 nm 315' KCJR 142355Z 00000KT 10SM SCT100 32/19 A2996
SW 72 nm 902' KLUA 142355Z 00000KT 10SM 32/18 A2998
E 73 nm 44' KAPG 122034Z VRB05KT 7SM -RA SCT030 OVC050 26/22 A3014
S 74 nm 10' KNYG 142356Z 19003KT 5SM CLR 33/22 A2995
NE 77 nm 463' KSEG 142353Z 27003KT 10SM FEW110 28/20 A2994
S 79 nm 219' KRMN 142355Z 00000KT 10SM SCT100 33/17 A2995
NW 83 nm 1419' KIDI 142355Z 30004KT 10SM CLR 30/17 A3003
NW 84 nm 1198' KLBE 142347Z 23008KT 10SM CLR 32/15 A2999
NE 86 nm 1729' KZER 142335Z 12006KT 7SM -RA SCT085 26/21 A3004
N 86 nm 1516' KFIG 142354Z 32004KT 10SM BKN100 OVC120 28/17 A3001
E 87 nm 660' KMQS 142355Z 00000KT 10SM CLR 26/26 A2999
S 87 nm 85' KEZF 142355Z 17005KT 10SM CLR 31/23 A2994
S 89 nm 464' KOMH 142355Z 18003KT 10SM SCT095 31/22 A2998
W 90 nm 1264' KVVS 142335Z 24007KT 10SM CLR 31/15 A3001
NE 90 nm 343' KRDG 142354Z 17003KT 10SM CLR 29/22 A2995
SE 94 nm 72' KESN 142345Z 18006KT 10SM CLR 30/23 A2996
S 95 nm 454' KGVE 142355Z 20003KT 10SM BKN095 31/23 A2996
E 97 nm 79' KILG 142351Z 13005KT 10SM CLR 28/23 A2996
SW 99 nm 1165' KVBW 142355Z 29004KT 10SM CLR 31/18 A3000
N 99 nm 528' KIPT 142354Z VRB03KT 10SM SCT120 31/17 A2991
TAFs for airports near HGR, sorted by distance:
SW 21 nm 564' KMRB KMRB 141727Z 1418/1518 25006KT P6SM FEW250
  FM142300 21005KT P6SM FEW250
  FM150300 17004KT P6SM FEW250
  FM151000 23005KT P6SM FEW200
  FM151400 28004KT P6SM FEW200
NW 44 nm 1503' KAOO TAF
  AMD KAOO 142127Z 1421/1518 26005KT P6SM SCT080
  FM150400 00000KT P6SM BKN090
  FM151400 25008KT P6SM SCT050 BKN250
S 47 nm 312' KIAD KIAD 142102Z 1421/1524 23009KT P6SM FEW250
  FM142300 21005KT P6SM FEW250
  FM150300 18004KT P6SM FEW250
  FM151600 26005KT P6SM FEW250
NE 53 nm 310' KMDT KMDT 142127Z 1421/1518 27005KT P6SM SCT040
  FM150000 15003KT 6SM BR SCT120
  FM150800 VRB03KT 4SM BR BKN250
  FM151300 28007KT P6SM SCT250
SE 58 nm 143' KBWI TAF
  AMD KBWI 142102Z 1421/1524 18009G15KT P6SM VCTS SCT060CB SCT250
  FM142300 20004KT P6SM FEW200
  FM150500 17004KT P6SM FEW250
  FM151600 25005KT P6SM FEW200
SE 60 nm 14' KDCA KDCA 142102Z 1421/1524 21008G16KT P6SM VCTS SCT060CB SCT250
  FM142200 08008G16KT P6SM FEW200
  FM150500 17005KT P6SM FEW200
  FM151600 26005KT P6SM FEW200
NW 62 nm 2284' KJST KJST 142127Z 1421/1518 26009G18KT P6SM SCT060
  FM150100 27005KT P6SM VCSH SCT040 BKN100
  FM150700 23006KT P6SM OVC100
SE 64 nm 73' KDAA TAF KDAA 121200Z 1212/1318 VRB05KT 9999 VCSH SCT030 BKN060 OVC100 QNH2996INS
  BECMG 1212/1213 03006KT 9000 -SHRA FEW015 BKN030 OVC070 QNH3000INS
  BECMG 1213/1214 04007KT 8000 -SHRA VCTS SCT015CB OVC030 QNH3011INS
  TEMPO 1214/1301 VRB12G20KT 4800 TSRA BR SCT008 OVC015CB
  BECMG 1302/1303 VRB06KT 9000 -RA OVC010 QNH3010INS
  BECMG 1306/1307 VRB05KT 4800 -RA BR OVC008 QNH3011INS
  BECMG 1312/1313 16007KT 8000 -SHRA VCTS SCT009 BKN015CB OVC030 QNH3012INS TX27/1220Z TN24/1310Z
E 65 nm 21' KMTN KMTN 142001Z 1420/1518 15012G20KT P6SM FEW250
  FM150000 20005KT P6SM FEW250
  FM150400 17005KT P6SM FEW250
  FM151600 21005KT P6SM FEW200
SE 67 nm 279' KADW TAF
  AMD KADW 141910Z 1419/1523 27012KT 9999 VCTS SCT050CB QNH2997INS
  TEMPO 1419/1421 29012G18KT 8000 -TSRA BKN050CB
  BECMG 1420/1421 22006KT 9999 NSW SCT050 QNH2994INS
  BECMG 1500/1501 17006KT 9999 FEW070 QNH2992INS
  BECMG 1506/1507 26006KT 9999 SCT060 SCT250 QNH2986INS
  BECMG 1518/1519 23012KT 9999 -SHRA VCTS BKN040CB QNH2983INS TX38/1419Z TN23/1509Z
N 68 nm 1231' KUNV KUNV 142127Z 1421/1518 28006KT P6SM SCT080
  FM150300 00000KT P6SM BKN090
  FM151400 25008KT P6SM SCT050 BKN250
NE 68 nm 487' KMUI TAF KMUI 121900Z 1219/1401 VRB06KT 8000 -SHRA SCT050 BKN070 QNH3014INS
  BECMG 1301/1302 VRB06KT 8000 -SHRA BKN025 QNH3017INS
  BECMG 1303/1304 VRB06KT 4800 -SHRA BKN010 OVC050 QNH3014INS
  TEMPO 1304/1306 22015G25KT 3200 -TSRA BKN006CB OVC050
  BECMG 1306/1307 VRB06KT 8000 BR OVC006 QNH3016INS
  BECMG 1313/1314 VRB06KT 8000 BR OVC050 QNH3009INS TX26/1219Z TN20/1311Z
E 70 nm 402' KLNS KLNS 142127Z 1421/1518 16006KT P6SM SCT070
  FM150200 15003KT 6SM BR SCT120
  FM150800 VRB03KT 4SM BR BKN250
  FM151300 28007KT P6SM SCT250
S 74 nm 10' KNYG TAF KNYG 1321/1421 VRB06KT 9999 SKC QNH3005INS
  FM140600 VRB06KT 9999 SCT200 QNH2995INS LAST NO
  AMDS AFT 1321 NEXT 1509 AUTOMATED SENSOR METWATCH 1321 TIL 1511 T32/1321Z T22/1411Z
NW 84 nm 1198' KLBE KLBE 142047Z 1421/1518 24013KT P6SM SCT050
  FM150300 20003KT P6SM BKN200
  FM151600 23013G22KT P6SM BKN050
NE 90 nm 343' KRDG TAF KRDG 141720Z 1418/1518 24005KT P6SM SCT040
  TEMPO 1418/1419 3SM TSRA BKN030CB
  FM142300 VRB03KT P6SM FEW100
  FM151500 26007KT P6SM FEW070
E 97 nm 79' KILG TAF KILG 141720Z 1418/1518 16008KT P6SM SCT040
  TEMPO 1418/1421 VRB20G30KT 3SM TSRA BKN040CB
  FM150100 18005KT P6SM FEW100
  FM151500 24006KT P6SM FEW060
N 99 nm 528' KIPT KIPT 142127Z 1421/1518 25007KT P6SM FEW080
  FM150200 00000KT P6SM BKN100
  FM151400 25007KT P6SM SCT050 BKN250

Shortcut to this page: http://wxbay.com.

Data may contain errors.